createdAt,value
2022-12-22T00:02:06.937Z,70.13
2022-12-22T00:05:12.170Z,73.43
2022-12-22T00:08:16.148Z,71.05
2022-12-22T00:11:20.339Z,70.38
2022-12-22T00:14:24.507Z,77.82
2022-12-22T00:17:42.287Z,74.32
2022-12-22T00:20:46.480Z,69.93
2022-12-22T00:23:51.019Z,68.18
2022-12-22T00:26:55.552Z,72.05
2022-12-22T00:30:01.528Z,72.38
2022-12-22T00:33:06.499Z,67.47
2022-12-22T00:36:10.477Z,65.13
2022-12-22T00:39:14.525Z,69.68
2022-12-22T00:42:18.956Z,66.70
2022-12-22T00:45:23.608Z,68.47
2022-12-22T00:48:41.292Z,63.03
2022-12-22T00:51:45.995Z,77.53
2022-12-22T00:54:49.978Z,70.03
2022-12-22T00:57:54.599Z,71.95
2022-12-22T01:00:58.872Z,67.00
2022-12-22T01:04:03.136Z,65.35
2022-12-22T01:07:07.732Z,67.22
2022-12-22T01:10:11.824Z,69.80
2022-12-22T01:13:16.083Z,69.22
2022-12-22T01:16:20.849Z,65.38
2022-12-22T01:19:24.869Z,64.80
2022-12-22T01:22:31.478Z,64.85
2022-12-22T01:25:38.410Z,68.20
2022-12-22T01:28:42.343Z,65.32
2022-12-22T01:31:48.130Z,65.30
2022-12-22T01:34:52.390Z,68.97
2022-12-22T01:37:56.447Z,65.00
2022-12-22T01:41:00.442Z,64.15
2022-12-22T01:44:05.229Z,63.28
2022-12-22T01:47:09.277Z,64.75
2022-12-22T01:50:13.233Z,63.50
2022-12-22T01:53:19.943Z,61.20
2022-12-22T01:56:25.086Z,61.85
2022-12-22T01:59:30.165Z,62.35
2022-12-22T02:02:37.237Z,57.47
2022-12-22T02:05:41.635Z,59.65
2022-12-22T02:08:51.677Z,59.22
2022-12-22T02:12:21.546Z,57.30
2022-12-22T02:15:44.528Z,63.22
2022-12-22T02:18:59.383Z,61.20
2022-12-22T02:22:15.524Z,63.00
2022-12-22T02:25:32.412Z,60.05
2022-12-22T02:28:36.919Z,63.35
2022-12-22T02:31:40.990Z,57.90
2022-12-22T02:34:44.992Z,62.65
2022-12-22T02:38:07.689Z,58.95
2022-12-22T02:41:25.100Z,55.70
2022-12-22T02:44:46.456Z,55.75
2022-12-22T02:48:05.256Z,62.35
2022-12-22T02:51:17.724Z,61.42
2022-12-22T02:54:23.626Z,58.83
2022-12-22T02:57:27.925Z,59.95
2022-12-22T03:00:32.308Z,60.15
2022-12-22T03:03:36.523Z,58.42
2022-12-22T03:06:40.862Z,63.75
2022-12-22T03:09:44.973Z,61.63
2022-12-22T03:12:49.096Z,58.92
2022-12-22T03:15:53.420Z,61.47
2022-12-22T03:18:57.610Z,61.03
2022-12-22T03:22:01.651Z,57.28
2022-12-22T03:25:05.757Z,62.97
2022-12-22T03:27:51.244Z,61.13
2022-12-22T03:30:37.460Z,56.28
2022-12-22T03:33:23.135Z,60.85
2022-12-22T03:36:09.171Z,62.13
2022-12-22T03:38:55.030Z,55.95
2022-12-22T03:41:59.164Z,61.53
2022-12-22T03:45:03.171Z,58.67
2022-12-22T03:47:48.912Z,56.35
2022-12-22T03:50:34.521Z,56.13
2022-12-22T03:53:20.005Z,58.60
2022-12-22T03:56:08.014Z,56.25
2022-12-22T03:58:54.392Z,57.90
2022-12-22T04:01:44.829Z,59.97
2022-12-22T04:04:30.498Z,56.15
2022-12-22T04:07:16.203Z,58.03
2022-12-22T04:10:20.892Z,63.90
2022-12-22T04:13:06.300Z,58.08
2022-12-22T04:15:51.855Z,55.60
2022-12-22T04:18:37.410Z,57.78
2022-12-22T04:21:23.475Z,62.70
2022-12-22T04:24:10.960Z,60.58
2022-12-22T04:26:56.878Z,57.47
2022-12-22T04:29:42.520Z,55.40
2022-12-22T04:32:28.006Z,53.65
2022-12-22T04:35:13.837Z,58.08
2022-12-22T04:37:59.200Z,61.63
2022-12-22T04:40:44.758Z,56.67
2022-12-22T04:43:30.479Z,58.35
2022-12-22T04:46:16.033Z,53.65
2022-12-22T04:49:01.777Z,54.63
2022-12-22T04:51:47.268Z,57.65
2022-12-22T04:54:32.976Z,60.72
2022-12-22T04:57:19.444Z,55.65
2022-12-22T05:00:06.250Z,53.72
2022-12-22T05:02:53.415Z,59.70
2022-12-22T05:05:39.339Z,55.25
2022-12-22T05:08:24.939Z,59.00
2022-12-22T05:11:11.102Z,60.95
2022-12-22T05:13:59.735Z,57.67
2022-12-22T05:16:49.296Z,54.05
2022-12-22T05:19:34.755Z,52.72
2022-12-22T05:22:20.492Z,53.50
2022-12-22T05:25:06.680Z,53.97
2022-12-22T05:27:52.537Z,57.35
2022-12-22T05:30:41.025Z,52.40
2022-12-22T05:33:26.584Z,52.15
2022-12-22T05:36:12.201Z,53.97
2022-12-22T05:38:57.727Z,54.63
2022-12-22T05:41:43.238Z,53.08
2022-12-22T05:44:28.921Z,50.80
2022-12-22T05:47:14.462Z,57.65
2022-12-22T05:50:00.008Z,53.30
2022-12-22T05:52:46.384Z,48.90
2022-12-22T05:55:32.160Z,51.00
2022-12-22T05:58:17.918Z,48.00
2022-12-22T06:01:03.853Z,50.28
2022-12-22T06:03:53.245Z,49.50
2022-12-22T06:06:41.720Z,47.65
2022-12-22T06:09:27.410Z,50.03
2022-12-22T06:12:13.025Z,49.17
2022-12-22T06:14:59.229Z,49.92
2022-12-22T06:17:45.542Z,49.83
2022-12-22T06:20:31.317Z,46.05
2022-12-22T06:23:17.138Z,47.60
2022-12-22T06:26:03.066Z,44.90
2022-12-22T06:28:49.036Z,51.28
2022-12-22T06:31:34.991Z,47.03
2022-12-22T06:34:21.343Z,55.65
2022-12-22T06:37:07.036Z,120.00
2022-12-22T06:39:53.273Z,65.57
2022-12-22T06:43:02.172Z,51.10
2022-12-22T06:45:51.566Z,66.57
2022-12-22T06:48:37.227Z,64.13
2022-12-22T06:51:23.067Z,49.70
2022-12-22T06:54:10.676Z,45.90
2022-12-22T06:56:57.357Z,48.85
2022-12-22T06:59:43.205Z,49.90
2022-12-22T07:02:29.002Z,50.35
2022-12-22T07:05:15.794Z,47.83
2022-12-22T07:08:08.013Z,47.30
2022-12-22T07:11:00.430Z,45.78
2022-12-22T07:13:46.207Z,46.55
2022-12-22T07:16:32.059Z,48.90
2022-12-22T07:19:17.983Z,52.10
2022-12-22T07:22:03.967Z,61.05
2022-12-22T07:24:50.178Z,43.65
2022-12-22T07:27:35.660Z,51.28
2022-12-22T07:30:20.985Z,55.75
2022-12-22T07:33:06.799Z,55.42
2022-12-22T07:36:06.346Z,47.60
2022-12-22T07:38:52.219Z,47.40
2022-12-22T07:41:57.063Z,61.50
2022-12-22T07:44:42.449Z,62.08
2022-12-22T07:47:33.360Z,54.75
2022-12-22T07:50:32.537Z,42.00
2022-12-22T07:53:17.839Z,45.38
2022-12-22T07:56:05.800Z,47.17
2022-12-22T07:58:51.425Z,48.38
2022-12-22T08:01:37.298Z,47.00
2022-12-22T08:04:24.429Z,47.85
2022-12-22T08:07:10.435Z,36.38
2022-12-22T08:09:56.142Z,38.42
2022-12-22T08:12:42.275Z,35.83
2022-12-22T08:15:28.033Z,37.65
2022-12-22T08:18:13.656Z,35.30
2022-12-22T08:20:59.285Z,32.35
2022-12-22T08:23:45.438Z,30.63
2022-12-22T08:26:39.456Z,32.22
2022-12-22T08:29:36.552Z,33.45
2022-12-22T08:32:22.075Z,33.80
2022-12-22T08:35:09.724Z,34.17
2022-12-22T08:37:55.601Z,38.30
2022-12-22T08:40:44.874Z,33.42
2022-12-22T08:43:31.762Z,34.65
2022-12-22T08:46:17.344Z,34.58
2022-12-22T08:49:03.181Z,29.63
2022-12-22T08:51:49.027Z,29.83
2022-12-22T08:54:34.656Z,35.40
2022-12-22T08:57:20.002Z,34.20
2022-12-22T09:00:08.622Z,30.48
2022-12-22T09:02:54.496Z,30.75
2022-12-22T09:05:41.999Z,33.97
2022-12-22T09:08:30.893Z,35.50
2022-12-22T09:11:17.123Z,43.45
2022-12-22T09:14:03.250Z,35.28
2022-12-22T09:16:48.806Z,30.83
2022-12-22T09:19:34.533Z,33.03
2022-12-22T09:22:26.765Z,34.90
2022-12-22T09:25:14.682Z,33.33
2022-12-22T09:28:01.345Z,38.20
2022-12-22T09:30:51.862Z,37.53
2022-12-22T09:33:38.819Z,35.85
2022-12-22T09:36:30.550Z,33.05
2022-12-22T09:39:16.962Z,33.83
2022-12-22T09:42:02.726Z,33.45
2022-12-22T09:44:51.964Z,34.45
2022-12-22T09:47:40.189Z,35.83
2022-12-22T09:50:26.850Z,35.40
2022-12-22T09:53:22.167Z,33.60
2022-12-22T09:56:16.208Z,36.03
2022-12-22T09:59:01.567Z,36.38
2022-12-22T10:02:20.029Z,37.88
2022-12-22T10:05:26.791Z,37.22
2022-12-22T10:08:18.713Z,35.13
2022-12-22T10:11:04.725Z,29.88
2022-12-22T10:13:50.523Z,35.83
2022-12-22T10:16:36.557Z,31.95
2022-12-22T10:19:22.212Z,31.48
2022-12-22T10:22:30.572Z,33.17
2022-12-22T10:26:26.425Z,36.30
2022-12-22T10:29:06.457Z,31.95
2022-12-22T10:32:04.648Z,35.00
2022-12-22T10:35:06.576Z,38.95
2022-12-22T10:37:52.048Z,33.50
2022-12-22T10:40:43.546Z,34.50
2022-12-22T10:43:29.717Z,27.40
2022-12-22T10:46:16.095Z,31.50
2022-12-22T10:49:15.871Z,30.20
2022-12-22T10:52:11.990Z,37.38
2022-12-22T10:55:18.003Z,34.13
2022-12-22T10:58:13.708Z,37.17
2022-12-22T11:01:04.391Z,36.30
2022-12-22T11:03:50.114Z,36.75
2022-12-22T11:06:36.218Z,38.38
2022-12-22T11:09:33.912Z,39.00
2022-12-22T11:12:36.058Z,33.63
2022-12-22T11:15:38.840Z,36.50
2022-12-22T11:18:55.811Z,43.40
2022-12-22T11:21:56.467Z,40.60
2022-12-22T11:25:20.341Z,47.15
2022-12-22T11:28:16.100Z,42.25
2022-12-22T11:31:26.751Z,46.58
2022-12-22T11:34:21.893Z,47.15
2022-12-22T11:37:22.811Z,49.50
2022-12-22T11:40:29.932Z,44.10
2022-12-22T11:44:01.969Z,46.13
2022-12-22T11:46:58.697Z,45.90
2022-12-22T11:51:02.141Z,54.78
2022-12-22T11:54:10.667Z,52.47
2022-12-22T11:57:22.403Z,46.33
2022-12-22T12:00:16.945Z,46.83
2022-12-22T12:03:21.154Z,46.67
2022-12-22T12:06:17.563Z,44.00
2022-12-22T12:09:25.849Z,42.72
2022-12-22T12:12:29.797Z,46.85
2022-12-22T12:15:28.004Z,43.90
2022-12-22T12:18:32.484Z,42.95
2022-12-22T12:21:29.688Z,44.00
2022-12-22T12:24:35.275Z,45.90
2022-12-22T12:27:35.829Z,52.38
2022-12-22T12:30:39.760Z,45.47
2022-12-22T12:33:36.432Z,51.20
2022-12-22T12:36:33.619Z,45.85
2022-12-22T12:39:34.092Z,48.53
2022-12-22T12:42:25.351Z,48.45
2022-12-22T12:45:47.255Z,50.17
2022-12-22T12:48:36.749Z,50.10
2022-12-22T12:51:48.805Z,50.20
2022-12-22T12:54:48.095Z,43.47
2022-12-22T12:57:49.276Z,47.58
2022-12-22T13:00:35.531Z,52.28
2022-12-22T13:03:53.169Z,49.45
2022-12-22T13:06:51.284Z,47.95
2022-12-22T13:10:07.548Z,54.83
2022-12-22T13:12:54.896Z,53.40
2022-12-22T13:15:42.813Z,53.38
2022-12-22T13:18:34.335Z,51.47
2022-12-22T13:21:52.260Z,54.45
2022-12-22T13:24:47.048Z,50.00
2022-12-22T13:27:36.907Z,49.67
2022-12-22T13:30:23.031Z,53.97
2022-12-22T13:33:12.249Z,55.30
2022-12-22T13:35:59.577Z,53.92
2022-12-22T13:38:46.208Z,52.83
2022-12-22T13:41:33.774Z,52.30
2022-12-22T13:44:25.439Z,60.90
2022-12-22T13:47:15.446Z,61.25
2022-12-22T13:50:09.897Z,54.45
2022-12-22T13:52:57.762Z,56.90
2022-12-22T13:55:47.715Z,56.95
2022-12-22T13:58:39.209Z,53.13
2022-12-22T14:01:25.776Z,52.58
2022-12-22T14:04:15.119Z,57.92
2022-12-22T14:07:30.517Z,55.58
2022-12-22T14:10:25.401Z,53.72
2022-12-22T14:13:20.473Z,56.20
2022-12-22T14:16:07.896Z,53.85
2022-12-22T14:18:54.536Z,56.47
2022-12-22T14:21:41.316Z,52.92
2022-12-22T14:24:32.075Z,56.17
2022-12-22T14:27:35.691Z,60.17
2022-12-22T14:30:22.722Z,54.78
2022-12-22T14:33:37.989Z,57.35
2022-12-22T14:36:25.825Z,53.53
2022-12-22T14:39:22.315Z,54.33
2022-12-22T14:42:13.917Z,60.75
2022-12-22T14:45:00.235Z,61.78
2022-12-22T14:47:46.300Z,58.88
2022-12-22T14:50:31.807Z,58.55
2022-12-22T14:53:27.105Z,56.97
2022-12-22T14:56:14.835Z,56.05
2022-12-22T14:59:21.830Z,65.43
2022-12-22T15:02:25.816Z,53.08
2022-12-22T15:05:32.913Z,51.92
2022-12-22T15:08:41.592Z,49.92
2022-12-22T15:11:27.101Z,45.42
2022-12-22T15:14:18.666Z,48.65
2022-12-22T15:17:06.293Z,77.28
2022-12-22T15:19:57.773Z,56.88
2022-12-22T15:22:43.648Z,50.13
2022-12-22T15:25:29.454Z,50.13
2022-12-22T15:28:15.162Z,56.08
2022-12-22T15:31:02.530Z,55.45
2022-12-22T15:33:48.363Z,58.65
2022-12-22T15:36:33.939Z,62.00
2022-12-22T15:39:21.473Z,56.60
2022-12-22T15:42:08.942Z,55.05
2022-12-22T15:44:54.647Z,61.75
2022-12-22T15:47:46.297Z,66.07
2022-12-22T15:50:39.381Z,77.68
2022-12-22T15:53:25.338Z,60.53
2022-12-22T15:56:18.091Z,59.28
2022-12-22T15:59:04.772Z,58.63
2022-12-22T16:01:56.527Z,60.90
2022-12-22T16:04:44.394Z,57.58
2022-12-22T16:07:31.226Z,53.30
2022-12-22T16:10:29.654Z,59.08
2022-12-22T16:13:16.352Z,57.13
2022-12-22T16:16:02.142Z,53.00
2022-12-22T16:18:47.951Z,52.70
2022-12-22T16:21:33.628Z,58.97
2022-12-22T16:24:30.565Z,55.75
2022-12-22T16:27:18.444Z,53.08
2022-12-22T16:30:05.100Z,57.45
2022-12-22T16:32:54.191Z,56.95
2022-12-22T16:35:40.549Z,53.33
2022-12-22T16:38:26.023Z,57.72
2022-12-22T16:41:23.423Z,53.70
2022-12-22T16:44:09.797Z,56.75
2022-12-22T16:46:57.120Z,56.30
2022-12-22T16:49:45.059Z,54.88
2022-12-22T16:52:40.230Z,67.25
2022-12-22T16:55:26.158Z,67.72
2022-12-22T16:58:13.924Z,63.55
2022-12-22T17:00:59.915Z,71.80
2022-12-22T17:03:45.757Z,64.82
2022-12-22T17:06:31.961Z,66.63
2022-12-22T17:09:21.581Z,63.75
2022-12-22T17:12:08.811Z,59.60
2022-12-22T17:14:55.990Z,62.45
2022-12-22T17:17:42.551Z,54.28
2022-12-22T17:20:29.900Z,59.22
2022-12-22T17:23:40.855Z,65.93
2022-12-22T17:26:26.687Z,62.33
2022-12-22T17:29:18.107Z,60.75
2022-12-22T17:32:04.573Z,55.78
2022-12-22T17:34:50.376Z,66.78
2022-12-22T17:37:35.836Z,58.78
2022-12-22T17:40:27.460Z,61.38
2022-12-22T17:43:15.180Z,70.50
2022-12-22T17:46:01.096Z,66.22
2022-12-22T17:48:47.379Z,83.72
2022-12-22T17:51:33.373Z,83.57
2022-12-22T17:54:24.276Z,82.75
2022-12-22T17:57:24.740Z,80.00
2022-12-22T18:00:19.275Z,80.45
2022-12-22T18:03:05.088Z,81.60
2022-12-22T18:05:51.038Z,82.00
2022-12-22T18:08:36.588Z,81.95
2022-12-22T18:11:22.942Z,69.88
2022-12-22T18:14:14.293Z,75.88
2022-12-22T18:17:00.070Z,72.03
2022-12-22T18:19:45.515Z,70.20
2022-12-22T18:22:31.225Z,73.65
2022-12-22T18:25:29.468Z,75.20
2022-12-22T18:28:17.677Z,78.80
2022-12-22T18:31:05.695Z,80.93
2022-12-22T18:33:53.058Z,77.28
2022-12-22T18:36:40.190Z,89.55
2022-12-22T18:39:26.195Z,75.72
2022-12-22T18:42:23.030Z,88.53
2022-12-22T18:45:14.626Z,79.05
2022-12-22T18:48:00.047Z,78.80
2022-12-22T18:50:45.770Z,67.57
2022-12-22T18:53:32.246Z,76.80
2022-12-22T18:56:18.369Z,87.28
2022-12-22T18:59:31.191Z,78.50
2022-12-22T19:02:19.992Z,75.57
2022-12-22T19:05:18.276Z,77.35
2022-12-22T19:08:03.876Z,88.88
2022-12-22T19:10:56.114Z,110.38
2022-12-22T19:13:46.772Z,87.60
2022-12-22T19:16:33.612Z,72.68
2022-12-22T19:19:21.069Z,73.55
2022-12-22T19:22:06.412Z,67.50
2022-12-22T19:24:51.963Z,74.57
2022-12-22T19:27:38.051Z,68.68
2022-12-22T19:30:27.141Z,70.78
2022-12-22T19:33:29.562Z,73.63
2022-12-22T19:36:27.442Z,76.22
2022-12-22T19:39:13.168Z,73.97
2022-12-22T19:42:00.012Z,76.00
2022-12-22T19:44:46.241Z,63.65
2022-12-22T19:47:31.948Z,71.22
2022-12-22T19:50:20.528Z,67.80
2022-12-22T19:53:06.724Z,75.10
2022-12-22T19:55:54.919Z,70.15
2022-12-22T19:58:40.981Z,72.50
2022-12-22T20:01:27.104Z,75.22
2022-12-22T20:04:14.092Z,68.55
2022-12-22T20:06:59.815Z,65.15
2022-12-22T20:09:46.015Z,65.65
2022-12-22T20:12:39.170Z,64.78
2022-12-22T20:15:33.427Z,58.80
2022-12-22T20:18:23.312Z,63.95
2022-12-22T20:21:23.044Z,69.10
2022-12-22T20:24:14.078Z,70.30
2022-12-22T20:27:00.092Z,66.15
2022-12-22T20:29:46.016Z,70.65
2022-12-22T20:32:31.622Z,67.82
2022-12-22T20:35:18.512Z,66.85
2022-12-22T20:38:19.438Z,71.75
2022-12-22T20:41:08.396Z,78.97
2022-12-22T20:43:54.172Z,69.15
2022-12-22T20:46:40.301Z,71.22
2022-12-22T20:49:25.809Z,66.50
2022-12-22T20:52:18.970Z,70.35
2022-12-22T20:55:04.822Z,74.57
2022-12-22T20:57:51.228Z,68.18
2022-12-22T21:00:36.947Z,67.68
2022-12-22T21:03:23.966Z,64.85
2022-12-22T21:06:29.687Z,70.10
2022-12-22T21:09:16.118Z,69.72
2022-12-22T21:12:02.363Z,68.55
2022-12-22T21:14:49.444Z,69.85
2022-12-22T21:17:35.155Z,68.15
2022-12-22T21:20:26.353Z,71.78
2022-12-22T21:23:14.133Z,73.88
2022-12-22T21:25:59.689Z,79.25
2022-12-22T21:28:46.489Z,62.55
2022-12-22T21:31:32.230Z,61.42
2022-12-22T21:34:17.970Z,66.20
2022-12-22T21:37:04.525Z,64.10
2022-12-22T21:39:50.521Z,64.88
2022-12-22T21:42:36.479Z,67.18
2022-12-22T21:45:27.928Z,64.53
2022-12-22T21:48:16.421Z,66.40
2022-12-22T21:51:02.137Z,67.65
2022-12-22T21:53:47.583Z,68.57
2022-12-22T21:56:33.120Z,66.95
2022-12-22T21:59:18.897Z,62.15
2022-12-22T22:02:13.773Z,66.03
2022-12-22T22:04:59.221Z,74.03
2022-12-22T22:07:44.827Z,70.40
2022-12-22T22:10:33.496Z,66.00
2022-12-22T22:13:19.025Z,69.25
2022-12-22T22:16:04.896Z,67.60
2022-12-22T22:18:50.950Z,70.65
2022-12-22T22:21:37.213Z,82.00
2022-12-22T22:24:22.844Z,68.80
2022-12-22T22:27:08.341Z,75.07
2022-12-22T22:29:53.935Z,74.22
2022-12-22T22:32:39.268Z,70.15
2022-12-22T22:35:26.621Z,72.53
2022-12-22T22:38:13.883Z,72.15
2022-12-22T22:40:59.465Z,73.97
2022-12-22T22:43:45.002Z,73.07
2022-12-22T22:46:30.756Z,71.50
2022-12-22T22:49:16.314Z,71.43
2022-12-22T22:52:01.901Z,67.72
2022-12-22T22:54:47.814Z,71.43
2022-12-22T22:57:33.348Z,76.75
2022-12-22T23:00:19.515Z,77.32
2022-12-22T23:03:05.638Z,74.55
2022-12-22T23:05:51.285Z,68.97
2022-12-22T23:08:37.226Z,70.20
2022-12-22T23:11:23.376Z,70.53
2022-12-22T23:14:10.989Z,66.35
2022-12-22T23:16:57.367Z,67.35
2022-12-22T23:19:42.769Z,70.18
2022-12-22T23:22:30.511Z,64.07
2022-12-22T23:25:16.157Z,69.05
2022-12-22T23:28:01.682Z,67.15
2022-12-22T23:30:49.780Z,69.53
2022-12-22T23:33:35.309Z,69.20
2022-12-22T23:36:20.815Z,65.97
2022-12-22T23:39:06.612Z,63.25
2022-12-22T23:41:52.358Z,73.75
2022-12-22T23:44:37.971Z,68.25
2022-12-22T23:47:23.934Z,68.53
2022-12-22T23:50:09.826Z,63.00
2022-12-22T23:52:55.382Z,67.43
2022-12-22T23:55:44.993Z,72.25
2022-12-22T23:58:30.576Z,63.60
